Time;durP1;ratioP1;P1;durP2;ratioP2;P2;SDS_P1;SDS_P2;PMS_P1;PMS_P2;Temp;Humidity;BMP_temperature;BMP_pressure;BME280_temperature;BME280_humidity;BME280_pressure;Samples;Min_cycle;Max_cycle;Signal;HPM_P1;HPM_P2
2022/06/11 00:01:39;;;;;;;16.97;12.77;;;16.70;99.90;;;;;;4860187;29;20277;-59
2022/06/11 00:04:12;;;;;;;17.70;13.47;;;16.70;99.90;;;;;;4860131;29;20188;-57
2022/06/11 00:06:44;;;;;;;21.30;13.40;;;16.70;99.90;;;;;;4860317;29;20184;-57
2022/06/11 00:09:11;;;;;;;20.20;14.70;;;16.70;99.90;;;;;;4859891;29;20185;-56
2022/06/11 00:11:38;;;;;;;22.90;14.07;;;16.70;99.90;;;;;;4844973;29;20608;-56
2022/06/11 00:14:04;;;;;;;17.73;14.17;;;16.60;99.90;;;;;;4842089;29;20185;-60
2022/06/11 00:16:31;;;;;;;26.83;16.23;;;16.60;99.90;;;;;;4841402;29;20185;-59
2022/06/11 00:18:57;;;;;;;23.03;17.37;;;16.60;99.90;;;;;;4841506;29;20180;-58
2022/06/11 00:21:26;;;;;;;22.57;15.87;;;16.60;99.90;;;;;;4841438;29;20229;-59
2022/06/11 00:23:51;;;;;;;22.40;16.43;;;16.50;99.90;;;;;;4860223;29;20181;-58
2022/06/11 00:26:18;;;;;;;31.17;20.57;;;16.50;99.90;;;;;;4859670;29;20491;-57
2022/06/11 00:28:44;;;;;;;24.30;20.00;;;16.60;99.90;;;;;;4859777;29;20224;-59
2022/06/11 00:31:10;;;;;;;28.13;21.93;;;16.60;99.90;;;;;;4859616;29;20212;-57
2022/06/11 00:33:37;;;;;;;29.33;22.47;;;16.50;99.90;;;;;;4843405;29;20615;-56
2022/06/11 00:36:05;;;;;;;31.17;23.07;;;16.50;99.90;;;;;;4859733;29;20189;-57
2022/06/11 00:38:32;;;;;;;28.97;23.20;;;16.50;99.90;;;;;;4859888;29;20189;-59
2022/06/11 00:40:58;;;;;;;30.10;22.80;;;16.50;99.90;;;;;;4859279;29;20212;-59
2022/06/11 00:43:29;;;;;;;29.60;22.23;;;16.40;99.90;;;;;;4859503;29;20260;-56
2022/06/11 00:45:59;;;;;;;28.87;20.93;;;16.40;99.90;;;;;;4849175;29;20253;-63
2022/06/11 00:48:38;;;;;;;29.23;22.33;;;16.50;99.90;;;;;;4839444;29;20220;-60
2022/06/11 00:51:20;;;;;;;28.73;21.50;;;16.40;99.90;;;;;;4839203;29;20177;-60
2022/06/11 00:53:54;;;;;;;29.00;21.87;;;16.40;99.90;;;;;;4840693;29;20256;-60
2022/06/11 00:56:28;;;;;;;29.87;20.77;;;16.40;99.90;;;;;;4841018;29;20216;-59
2022/06/11 00:58:57;;;;;;;26.30;21.10;;;16.40;99.90;;;;;;4841537;29;20179;-59
2022/06/11 01:01:24;;;;;;;28.30;21.63;;;16.40;99.90;;;;;;4840938;29;20218;-58
2022/06/11 01:03:53;;;;;;;28.67;21.33;;;16.40;99.90;;;;;;4841150;29;20593;-61
2022/06/11 01:06:34;;;;;;;27.20;20.93;;;16.40;99.90;;;;;;4840924;29;20197;-59
2022/06/11 01:09:09;;;;;;;30.03;21.13;;;16.40;99.90;;;;;;4841142;29;20181;-59
2022/06/11 01:11:53;;;;;;;28.80;20.53;;;16.40;99.90;;;;;;4841187;29;20541;-55
2022/06/11 01:14:37;;;;;;;19.67;16.90;;;16.40;99.90;;;;;;4841124;29;20181;-56
2022/06/11 01:17:21;;;;;;;56.37;19.73;;;16.40;99.90;;;;;;4840817;29;20178;-58
2022/06/11 01:20:12;;;;;;;47.97;20.93;;;16.40;99.90;;;;;;4841326;29;20267;-59
2022/06/11 01:23:09;;;;;;;21.10;13.23;;;16.40;99.90;;;;;;4851066;29;20247;-59
2022/06/11 01:26:11;;;;;;;2.10;1.93;;;16.40;99.90;;;;;;4859560;29;20189;-59
2022/06/11 01:29:05;;;;;;;1.20;1.10;;;16.30;99.90;;;;;;4859447;29;20284;-58
2022/06/11 01:31:54;;;;;;;0.80;0.80;;;16.20;99.90;;;;;;4842901;29;20224;-58
2022/06/11 01:34:45;;;;;;;2.73;1.07;;;16.20;99.90;;;;;;4862884;29;20633;-59
2022/06/11 01:37:27;;;;;;;1.40;1.30;;;16.20;99.90;;;;;;4862702;29;20409;-59
2022/06/11 01:40:01;;;;;;;2.13;1.40;;;16.20;99.90;;;;;;4862940;29;20179;-59
2022/06/11 01:42:51;;;;;;;0.50;0.50;;;16.20;99.90;;;;;;4862728;29;20213;-60
2022/06/11 01:45:19;;;;;;;0.67;0.60;;;16.20;99.90;;;;;;4862700;29;20185;-58
2022/06/11 01:47:47;;;;;;;1.10;1.00;;;16.20;99.90;;;;;;4862462;29;20197;-58
2022/06/11 01:50:17;;;;;;;2.50;1.87;;;16.30;99.90;;;;;;4862734;29;20195;-60
2022/06/11 01:52:52;;;;;;;0.80;0.70;;;16.30;99.90;;;;;;4862629;29;20181;-60
2022/06/11 01:55:34;;;;;;;8.20;2.10;;;16.20;99.90;;;;;;4862170;29;20237;-58
2022/06/11 01:58:29;;;;;;;0.83;0.77;;;16.20;99.90;;;;;;4862234;29;20181;-59
2022/06/11 02:01:06;;;;;;;1.60;1.33;;;16.20;99.90;;;;;;4862627;29;20208;-59
2022/06/11 02:03:53;;;;;;;1.43;0.47;;;16.20;99.90;;;;;;4862745;29;20179;-59
2022/06/11 02:06:46;;;;;;;1.83;1.13;;;16.20;99.90;;;;;;4862189;29;20706;-59
2022/06/11 02:09:20;;;;;;;1.30;1.13;;;16.20;99.90;;;;;;4862127;29;20191;-60
2022/06/11 02:12:00;;;;;;;1.20;1.10;;;16.20;99.90;;;;;;4845726;29;20192;-60
2022/06/11 02:14:44;;;;;;;1.57;1.33;;;16.30;99.90;;;;;;4844093;29;20244;-59
2022/06/11 02:17:20;;;;;;;2.87;1.40;;;16.20;99.90;;;;;;4843420;29;20944;-59
2022/06/11 02:20:01;;;;;;;1.47;1.37;;;16.30;99.90;;;;;;4843732;29;20222;-57
2022/06/11 02:22:40;;;;;;;2.50;1.20;;;16.20;99.90;;;;;;4835410;29;20545;-59
2022/06/11 02:25:25;;;;;;;1.73;1.03;;;16.30;99.90;;;;;;4862007;29;20184;-59
2022/06/11 02:27:55;;;;;;;1.87;1.07;;;16.30;99.90;;;;;;4861753;29;20240;-60
2022/06/11 02:30:26;;;;;;;0.90;0.90;;;16.30;99.90;;;;;;4861839;29;20189;-59
2022/06/11 02:32:52;;;;;;;5.40;1.73;;;16.40;99.90;;;;;;4861959;29;20188;-60
2022/06/11 02:35:38;;;;;;;1.97;0.80;;;16.30;99.90;;;;;;4861752;29;20177;-59
2022/06/11 02:38:06;;;;;;;0.80;0.73;;;16.30;99.90;;;;;;4861478;29;20181;-60
2022/06/11 02:40:37;;;;;;;1.40;1.30;;;16.40;99.90;;;;;;4861583;29;20208;-58
2022/06/11 02:43:03;;;;;;;6.67;1.40;;;16.40;99.90;;;;;;4861424;29;20187;-59
2022/06/11 02:45:29;;;;;;;1.97;1.33;;;16.40;99.90;;;;;;4861402;29;20264;-59
2022/06/11 02:47:55;;;;;;;4.03;1.07;;;16.50;99.90;;;;;;4861561;29;20191;-59
2022/06/11 02:50:26;;;;;;;2.33;1.70;;;16.50;99.90;;;;;;4861288;29;20540;-60
2022/06/11 02:52:52;;;;;;;1.80;1.70;;;16.60;99.90;;;;;;4861871;29;20177;-59
2022/06/11 02:55:18;;;;;;;4.70;1.93;;;16.60;99.90;;;;;;4861292;29;20567;-59
2022/06/11 02:57:44;;;;;;;2.43;1.83;;;16.60;99.90;;;;;;4861142;29;20189;-59
2022/06/11 03:00:14;;;;;;;2.30;1.27;;;16.60;99.90;;;;;;4861296;29;20712;-60
2022/06/11 03:02:39;;;;;;;4.53;1.73;;;16.60;99.90;;;;;;4861287;29;20189;-59
2022/06/11 03:05:05;;;;;;;1.80;1.70;;;16.70;99.90;;;;;;4861226;29;20578;-59
2022/06/11 03:07:31;;;;;;;1.17;1.07;;;16.70;99.90;;;;;;4861056;29;20185;-59
2022/06/11 03:09:57;;;;;;;0.50;0.50;;;16.80;99.90;;;;;;4858956;29;20193;-60
2022/06/11 03:12:23;;;;;;;0.83;0.80;;;16.80;99.90;;;;;;4842719;29;20293;-58
2022/06/11 03:14:48;;;;;;;1.20;1.03;;;16.70;99.90;;;;;;4842448;29;20239;-59
2022/06/11 03:17:19;;;;;;;2.60;1.90;;;16.70;99.90;;;;;;4842396;29;20529;-59
2022/06/11 03:19:45;;;;;;;1.53;1.43;;;16.80;99.90;;;;;;4842318;29;20699;-59
2022/06/11 03:22:11;;;;;;;0.80;0.67;;;16.90;99.90;;;;;;4848912;29;20215;-60
2022/06/11 03:24:37;;;;;;;1.43;1.30;;;16.90;99.90;;;;;;4860899;29;20204;-59
2022/06/11 03:27:03;;;;;;;1.23;0.93;;;16.90;99.90;;;;;;4860805;29;20674;-59
2022/06/11 03:29:29;;;;;;;2.80;1.30;;;16.90;99.90;;;;;;4860557;29;20184;-56
2022/06/11 03:31:55;;;;;;;1.50;1.40;;;16.90;99.90;;;;;;4860688;29;20185;-59
2022/06/11 03:34:21;;;;;;;2.03;1.40;;;16.90;99.90;;;;;;4860471;29;20180;-60
2022/06/11 03:36:48;;;;;;;2.13;1.77;;;16.90;99.90;;;;;;4860640;29;20173;-59
2022/06/11 03:39:16;;;;;;;1.67;1.10;;;16.90;99.90;;;;;;4860266;29;20205;-59
2022/06/11 03:41:43;;;;;;;1.67;1.30;;;17.00;99.90;;;;;;4860260;29;20256;-59
2022/06/11 03:44:08;;;;;;;2.03;1.43;;;17.00;99.90;;;;;;4860065;29;20173;-58
2022/06/11 03:46:34;;;;;;;1.57;1.47;;;17.00;99.90;;;;;;4860010;29;20707;-57
2022/06/11 03:49:01;;;;;;;2.03;1.57;;;17.10;99.90;;;;;;4860200;29;20544;-58
2022/06/11 03:51:26;;;;;;;1.97;1.70;;;17.10;99.90;;;;;;4860092;29;20196;-59
2022/06/11 03:53:52;;;;;;;6.37;1.50;;;17.10;99.90;;;;;;4844194;29;20185;-58
2022/06/11 03:56:19;;;;;;;1.47;1.37;;;17.10;99.90;;;;;;4859541;29;20181;-58
2022/06/11 03:58:47;;;;;;;1.47;1.20;;;17.20;99.90;;;;;;4860201;29;20185;-57
2022/06/11 04:01:18;;;;;;;2.30;1.70;;;17.30;99.90;;;;;;4859506;29;20219;-58
2022/06/11 04:03:56;;;;;;;5.70;1.80;;;17.50;99.90;;;;;;4859992;29;20185;-58
2022/06/11 04:06:35;;;;;;;1.90;1.40;;;17.60;99.90;;;;;;4859810;29;20220;-57
2022/06/11 04:09:03;;;;;;;2.27;1.67;;;17.80;99.90;;;;;;4843371;29;20271;-55
2022/06/11 04:11:29;;;;;;;1.50;1.03;;;17.90;99.90;;;;;;4845337;29;20225;-55
2022/06/11 04:13:55;;;;;;;1.80;1.40;;;17.80;99.90;;;;;;4841544;29;20547;-59
2022/06/11 04:16:35;;;;;;;9.47;3.40;;;17.80;99.90;;;;;;4841199;29;20185;-58
2022/06/11 04:19:03;;;;;;;1.63;1.43;;;17.80;99.90;;;;;;4841271;29;20268;-57
2022/06/11 04:21:31;;;;;;;0.80;0.80;;;17.80;99.90;;;;;;4842618;29;20206;-56
2022/06/11 04:23:59;;;;;;;2.07;1.47;;;17.90;99.90;;;;;;4859480;29;20181;-60
2022/06/11 04:26:32;;;;;;;3.00;1.20;;;17.80;99.90;;;;;;4858960;29;20185;-56
2022/06/11 04:28:59;;;;;;;0.60;0.40;;;17.90;99.90;;;;;;4859433;29;20693;-59
2022/06/11 04:31:27;;;;;;;2.97;1.67;;;18.10;99.90;;;;;;4859608;29;20181;-59
2022/06/11 04:33:53;;;;;;;1.30;0.70;;;18.10;99.90;;;;;;4859355;29;20185;-59
2022/06/11 04:36:23;;;;;;;2.30;2.10;;;18.10;99.90;;;;;;4859073;29;20181;-59
2022/06/11 04:38:49;;;;;;;1.83;1.53;;;18.30;99.90;;;;;;4859286;29;20200;-59
2022/06/11 04:41:16;;;;;;;1.67;1.43;;;18.20;99.90;;;;;;4859170;29;20224;-59
2022/06/11 04:43:42;;;;;;;4.63;2.33;;;18.30;99.90;;;;;;4859272;29;20240;-62
2022/06/11 04:46:09;;;;;;;6.37;1.83;;;18.30;99.90;;;;;;4859097;29;20271;-60
2022/06/11 04:48:34;;;;;;;3.00;2.07;;;18.50;99.90;;;;;;4859301;29;20177;-59
2022/06/11 04:51:02;;;;;;;5.63;3.00;;;18.60;99.90;;;;;;4859148;29;20181;-59
2022/06/11 04:53:28;;;;;;;2.03;1.90;;;18.70;99.90;;;;;;4858997;29;20589;-59
2022/06/11 04:55:53;;;;;;;2.80;1.70;;;18.80;99.90;;;;;;4859253;29;20185;-60
2022/06/11 04:58:19;;;;;;;1.80;1.10;;;18.80;99.90;;;;;;4859047;29;20189;-61
2022/06/11 05:00:45;;;;;;;1.97;1.80;;;18.80;99.90;;;;;;4859191;29;20312;-59
2022/06/11 05:03:11;;;;;;;2.53;1.73;;;18.90;99.90;;;;;;4859147;29;20264;-59
2022/06/11 05:05:37;;;;;;;2.37;1.80;;;19.00;99.90;;;;;;4859131;29;20263;-59
2022/06/11 05:08:03;;;;;;;1.97;1.47;;;19.00;99.90;;;;;;4844639;29;20185;-59
2022/06/11 05:10:31;;;;;;;3.53;2.93;;;19.10;99.90;;;;;;4856602;29;20193;-60
2022/06/11 05:12:58;;;;;;;2.20;1.70;;;19.20;99.90;;;;;;4844515;29;20189;-59
2022/06/11 05:15:23;;;;;;;2.75;1.40;;;19.30;99.90;;;;;;4827468;29;20230;-58
2022/06/11 05:17:50;;;;;;;3.63;2.25;;;19.50;99.90;;;;;;4844493;29;20251;-58
2022/06/11 05:20:17;;;;;;;4.47;2.72;;;19.50;99.90;;;;;;4844122;29;20237;-61
2022/06/11 05:22:45;;;;;;;3.08;2.03;;;19.50;99.90;;;;;;4854775;29;20542;-60
2022/06/11 05:25:12;;;;;;;3.42;1.92;;;19.50;99.90;;;;;;4862454;29;20185;-60
2022/06/11 05:27:40;;;;;;;3.55;2.20;;;19.60;99.90;;;;;;4862427;29;20264;-59
2022/06/11 05:30:15;;;;;;;1.80;1.50;;;19.50;99.90;;;;;;4862434;29;20230;-59
2022/06/11 05:32:42;;;;;;;6.28;3.80;;;19.40;99.90;;;;;;4862289;29;20200;-59
2022/06/11 05:35:14;;;;;;;4.70;2.10;;;19.40;99.90;;;;;;4862163;29;20176;-59
2022/06/11 05:37:40;;;;;;;1.85;1.65;;;19.50;99.90;;;;;;4862074;29;20193;-59
2022/06/11 05:40:07;;;;;;;2.67;1.67;;;19.60;99.90;;;;;;4862400;29;20242;-61
2022/06/11 05:42:33;;;;;;;2.97;2.25;;;19.80;99.90;;;;;;4861908;29;20220;-59
2022/06/11 05:44:59;;;;;;;1.55;1.38;;;19.80;99.90;;;;;;4861872;29;20193;-59
2022/06/11 05:47:27;;;;;;;4.15;2.13;;;19.80;99.90;;;;;;4861705;29;20635;-60
2022/06/11 05:49:59;;;;;;;6.10;2.00;;;19.70;99.90;;;;;;4861952;29;20177;-60
2022/06/11 05:52:28;;;;;;;1.55;1.45;;;19.80;99.90;;;;;;4861776;29;20177;-59
2022/06/11 05:54:56;;;;;;;1.92;1.40;;;19.90;99.90;;;;;;4861227;29;20260;-60
2022/06/11 05:57:25;;;;;;;2.97;1.90;;;20.00;99.90;;;;;;4861093;29;20345;-59
2022/06/11 06:00:08;;;;;;;1.42;1.33;;;20.00;99.90;;;;;;4861277;29;20193;-60
2022/06/11 06:02:33;;;;;;;4.53;1.63;;;20.00;99.90;;;;;;4861401;29;20350;-59
2022/06/11 06:04:59;;;;;;;2.67;2.20;;;20.10;99.90;;;;;;4860850;29;20260;-59
2022/06/11 06:07:25;;;;;;;1.88;1.55;;;20.30;99.90;;;;;;4841511;29;20186;-64
2022/06/11 06:09:50;;;;;;;1.67;1.45;;;20.40;99.90;;;;;;4837461;29;20650;-61
2022/06/11 06:12:17;;;;;;;1.40;1.02;;;20.40;99.90;;;;;;4824028;29;20198;-60
2022/06/11 06:14:43;;;;;;;2.20;1.48;;;20.70;99.90;;;;;;4841849;29;20190;-60
2022/06/11 06:17:09;;;;;;;2.80;2.08;;;20.60;99.90;;;;;;4841647;29;20284;-59
2022/06/11 06:19:34;;;;;;;5.78;2.60;;;20.60;99.90;;;;;;4840318;29;20301;-60
2022/06/11 06:22:04;;;;;;;1.58;1.20;;;20.70;99.90;;;;;;4841628;29;20221;-62
2022/06/11 06:24:31;;;;;;;1.23;1.08;;;20.80;99.90;;;;;;4841492;29;20186;-69
2022/06/11 06:26:57;;;;;;;1.17;1.08;;;21.10;99.90;;;;;;4841607;29;20245;-68
2022/06/11 06:29:23;;;;;;;1.77;1.38;;;21.10;99.90;;;;;;4824763;29;20205;-63
2022/06/11 06:31:49;;;;;;;2.58;2.03;;;21.30;99.90;;;;;;4841355;29;20212;-63
2022/06/11 06:34:14;;;;;;;1.63;1.33;;;21.40;99.90;;;;;;4824814;29;20360;-61
2022/06/11 06:36:40;;;;;;;2.15;0.98;;;21.20;99.90;;;;;;4840672;29;20208;-62
2022/06/11 06:39:06;;;;;;;3.63;2.13;;;21.30;99.90;;;;;;4838069;29;20197;-62
2022/06/11 06:41:31;;;;;;;5.35;1.67;;;21.30;99.90;;;;;;4839641;29;20229;-60
2022/06/11 06:43:57;;;;;;;1.95;1.65;;;21.40;99.90;;;;;;4839269;29;20209;-60
2022/06/11 06:46:23;;;;;;;2.00;1.65;;;21.50;99.90;;;;;;4839800;29;20554;-63
2022/06/11 06:48:49;;;;;;;2.63;1.73;;;21.70;99.90;;;;;;4840464;29;20197;-61
2022/06/11 06:51:15;;;;;;;1.92;1.55;;;22.10;99.90;;;;;;4839943;29;20665;-60
2022/06/11 06:53:42;;;;;;;1.15;1.05;;;22.30;99.90;;;;;;4839735;29;20283;-61
2022/06/11 06:56:08;;;;;;;1.75;1.30;;;22.50;99.90;;;;;;4840560;29;20190;-61
2022/06/11 06:58:34;;;;;;;3.13;1.80;;;22.70;99.90;;;;;;4839374;29;20198;-65
2022/06/11 07:01:01;;;;;;;0.75;0.68;;;22.60;99.90;;;;;;4824284;29;20262;-61
2022/06/11 07:03:27;;;;;;;5.13;2.00;;;22.30;99.90;;;;;;4840166;29;20222;-63
2022/06/11 07:05:53;;;;;;;3.28;1.75;;;22.30;99.90;;;;;;4840365;29;20532;-63
2022/06/11 07:08:20;;;;;;;1.70;1.60;;;22.40;99.90;;;;;;4840015;29;20731;-59
2022/06/11 07:10:48;;;;;;;16.95;1.80;;;22.30;99.90;;;;;;4830122;29;20205;-63
2022/06/11 07:13:13;;;;;;;2.45;1.75;;;22.30;99.90;;;;;;4838959;29;20221;-56
2022/06/11 07:15:41;;;;;;;3.45;0.70;;;22.40;99.90;;;;;;4840774;29;20224;-63
2022/06/11 07:18:25;;;;;;;2.80;2.22;;;22.50;99.90;;;;;;4839664;29;20197;-59
2022/06/11 07:20:53;;;;;;;3.63;1.35;;;22.30;99.90;;;;;;4839415;29;20231;-63
2022/06/11 07:23:25;;;;;;;1.88;1.63;;;22.30;99.90;;;;;;4838153;29;20233;-62
2022/06/11 07:25:54;;;;;;;1.55;1.30;;;22.40;99.90;;;;;;4840139;29;20193;-60
2022/06/11 07:28:34;;;;;;;3.85;1.63;;;22.50;99.90;;;;;;4840020;29;20305;-61
2022/06/11 07:31:00;;;;;;;7.72;2.70;;;22.40;99.90;;;;;;4840230;29;20192;-66
2022/06/11 07:33:27;;;;;;;4.32;1.65;;;22.30;99.90;;;;;;4839874;29;20189;-59
2022/06/11 07:35:53;;;;;;;1.65;1.52;;;22.10;99.90;;;;;;4839220;29;20633;-63
2022/06/11 07:38:21;;;;;;;1.63;1.52;;;22.20;99.90;;;;;;4830319;29;20577;-61
2022/06/11 07:40:47;;;;;;;1.58;1.42;;;22.20;99.90;;;;;;4839626;29;20285;-58
2022/06/11 07:43:13;;;;;;;2.88;1.70;;;22.10;99.90;;;;;;4839543;29;20182;-61
2022/06/11 07:45:42;;;;;;;2.75;1.90;;;22.30;99.90;;;;;;4822916;29;20595;-61
2022/06/11 07:48:09;;;;;;;2.22;1.23;;;22.40;99.90;;;;;;4839760;29;20193;-61
2022/06/11 07:50:38;;;;;;;1.70;1.52;;;22.70;99.90;;;;;;4839482;29;20193;-62
2022/06/11 07:53:05;;;;;;;6.22;3.35;;;22.60;99.90;;;;;;4838186;29;20691;-63
2022/06/11 07:55:32;;;;;;;2.10;1.98;;;22.80;99.90;;;;;;4822962;29;20206;-60
2022/06/11 07:57:59;;;;;;;7.75;2.55;;;23.00;99.90;;;;;;4839994;29;20217;-61
2022/06/11 08:00:31;;;;;;;4.00;2.28;;;23.20;99.90;;;;;;4839597;29;20209;-60
2022/06/11 08:02:57;;;;;;;4.13;1.92;;;23.40;99.90;;;;;;4823379;29;20190;-61
2022/06/11 08:05:23;;;;;;;1.65;1.55;;;23.10;99.90;;;;;;4823647;29;20185;-60
2022/06/11 08:07:51;;;;;;;2.58;1.73;;;23.20;99.90;;;;;;4838693;29;20189;-61
2022/06/11 08:10:18;;;;;;;2.45;1.70;;;23.30;99.90;;;;;;4838289;29;20216;-65
2022/06/11 08:12:43;;;;;;;3.00;1.88;;;23.40;99.90;;;;;;4823545;29;20193;-60
2022/06/11 08:15:10;;;;;;;1.38;1.10;;;23.40;99.90;;;;;;4839712;29;20186;-60
2022/06/11 08:17:36;;;;;;;1.83;1.00;;;23.70;99.90;;;;;;4839829;29;20201;-60
2022/06/11 08:20:03;;;;;;;4.10;1.65;;;24.10;99.90;;;;;;4839259;29;20671;-60
2022/06/11 08:22:30;;;;;;;4.25;2.00;;;24.30;99.90;;;;;;4837347;29;20573;-60
2022/06/11 08:24:57;;;;;;;2.85;1.73;;;24.60;99.90;;;;;;4838893;29;20667;-60
2022/06/11 08:27:23;;;;;;;4.35;1.63;;;24.70;99.90;;;;;;4844811;29;20240;-60
2022/06/11 08:29:48;;;;;;;2.42;1.60;;;24.90;99.90;;;;;;4857388;29;20216;-59
2022/06/11 08:32:14;;;;;;;4.13;1.88;;;25.30;99.90;;;;;;4857885;29;20209;-60
2022/06/11 08:34:43;;;;;;;24.08;20.35;;;25.40;99.90;;;;;;4856508;29;20193;-63
2022/06/11 08:37:09;;;;;;;30.45;22.25;;;25.70;99.90;;;;;;4857382;29;20283;-63
2022/06/11 08:39:35;;;;;;;31.17;23.83;;;25.70;99.90;;;;;;4856903;29;20277;-57
2022/06/11 08:42:01;;;;;;;31.23;24.65;;;25.70;99.90;;;;;;4856805;29;20224;-60
2022/06/11 08:44:31;;;;;;;30.17;23.70;;;25.20;99.90;;;;;;4857375;29;20210;-62
2022/06/11 08:47:01;;;;;;;27.63;22.67;;;24.80;99.90;;;;;;4857050;29;20272;-59
2022/06/11 08:49:31;;;;;;;28.35;22.92;;;24.30;99.90;;;;;;4857159;29;20273;-62
2022/06/11 08:52:09;;;;;;;31.27;21.45;;;24.20;99.90;;;;;;4847616;29;20188;-61
2022/06/11 08:54:39;;;;;;;29.63;23.42;;;24.30;99.90;;;;;;4855686;29;20200;-66
2022/06/11 08:57:26;;;;;;;36.78;25.77;;;24.20;99.90;;;;;;4856498;29;20180;-63
2022/06/11 09:00:18;;;;;;;36.50;25.05;;;23.60;99.90;;;;;;4855991;29;20189;-63
2022/06/11 09:03:02;;;;;;;28.70;23.50;;;23.50;99.90;;;;;;4838974;29;20224;-63
2022/06/11 09:05:37;;;;;;;29.23;23.30;;;23.20;99.90;;;;;;4855465;29;20221;-62
2022/06/11 09:08:34;;;;;;;30.40;22.35;;;23.30;99.90;;;;;;4855678;29;20187;-62
2022/06/11 09:11:12;;;;;;;35.50;21.85;;;23.10;99.90;;;;;;4857573;29;20196;-61
2022/06/11 09:14:05;;;;;;;39.28;20.88;;;23.10;99.90;;;;;;4856539;29;20634;-62
2022/06/11 09:17:08;;;;;;;26.38;19.90;;;23.40;99.90;;;;;;4857114;29;20185;-62
2022/06/11 09:19:44;;;;;;;23.10;17.85;;;23.70;99.90;;;;;;4857324;29;20216;-62
2022/06/11 09:22:31;;;;;;;23.45;19.45;;;24.10;99.90;;;;;;4857901;29;20215;-61
2022/06/11 09:25:26;;;;;;;25.90;20.92;;;24.20;99.90;;;;;;4857109;29;20410;-62
2022/06/11 09:27:55;;;;;;;34.53;22.63;;;24.30;99.90;;;;;;4845222;29;20244;-62
2022/06/11 09:30:41;;;;;;;26.95;18.45;;;24.50;99.90;;;;;;4838517;29;20217;-69
2022/06/11 09:33:28;;;;;;;25.95;19.55;;;24.80;99.90;;;;;;4838840;29;20224;-62
2022/06/11 09:36:11;;;;;;;28.48;19.77;;;24.80;99.90;;;;;;4838554;29;20273;-62
2022/06/11 09:39:08;;;;;;;28.55;18.05;;;24.80;99.90;;;;;;4821681;29;20182;-61
2022/06/11 09:42:06;;;;;;;28.80;16.45;;;25.10;99.90;;;;;;4822161;29;20221;-61
2022/06/11 09:44:32;;;;;;;20.58;15.80;;;24.90;99.90;;;;;;4813095;29;20281;-63
2022/06/11 09:47:30;;;;;;;19.67;15.27;;;25.10;99.90;;;;;;4838917;29;20264;-63
2022/06/11 09:50:29;;;;;;;23.23;17.33;;;25.50;99.90;;;;;;4838000;29;20201;-64
2022/06/11 09:53:14;;;;;;;26.88;20.23;;;25.40;99.90;;;;;;4774820;29;20198;-65
2022/06/11 09:56:13;;;;;;;29.88;20.73;;;24.80;99.90;;;;;;4842324;29;20209;-61
2022/06/11 09:58:52;;;;;;;24.80;19.50;;;24.80;99.90;;;;;;4841862;29;20630;-61
2022/06/11 10:01:28;;;;;;;29.73;20.88;;;24.70;99.90;;;;;;4841822;29;20219;-62
2022/06/11 10:04:15;;;;;;;24.25;21.08;;;24.70;99.90;;;;;;4841679;29;20181;-60
2022/06/11 10:06:53;;;;;;;24.65;19.45;;;24.30;99.90;;;;;;4841876;29;20413;-65
2022/06/11 10:09:24;;;;;;;27.45;19.08;;;24.50;99.90;;;;;;4841779;29;20182;-63
2022/06/11 10:12:16;;;;;;;21.75;15.50;;;24.80;99.90;;;;;;4842050;29;20585;-60
2022/06/11 10:14:51;;;;;;;28.08;18.90;;;24.70;99.90;;;;;;4841652;29;20190;-62
2022/06/11 10:17:27;;;;;;;22.92;18.60;;;24.70;99.90;;;;;;4842246;29;20197;-62
2022/06/11 10:20:07;;;;;;;31.55;21.58;;;24.30;99.90;;;;;;4842201;29;20217;-64
2022/06/11 10:22:48;;;;;;;30.20;21.08;;;23.80;99.90;;;;;;4841150;29;20209;-62
2022/06/11 10:25:29;;;;;;;31.52;19.95;;;23.50;99.90;;;;;;4840960;29;20193;-62
2022/06/11 10:28:12;;;;;;;26.50;20.75;;;23.30;99.90;;;;;;4825234;29;20244;-63
2022/06/11 10:30:47;;;;;;;26.92;18.75;;;23.00;99.90;;;;;;4841385;29;20201;-63
2022/06/11 10:33:23;;;;;;;26.15;18.25;;;22.90;99.90;;;;;;4841454;29;20181;-64
2022/06/11 10:36:02;;;;;;;25.23;17.98;;;23.00;99.90;;;;;;4839134;29;20181;-64
2022/06/11 10:38:48;;;;;;;26.05;18.48;;;23.20;99.90;;;;;;4839799;29;20281;-62
2022/06/11 10:41:26;;;;;;;22.20;16.88;;;23.60;99.90;;;;;;4840224;29;20336;-62
2022/06/11 10:44:14;;;;;;;24.88;18.63;;;24.10;99.90;;;;;;4840061;29;20193;-65
2022/06/11 10:46:40;;;;;;;32.38;18.40;;;24.40;99.90;;;;;;4839106;29;20185;-63
2022/06/11 10:49:14;;;;;;;22.33;17.80;;;24.80;99.90;;;;;;4841154;29;20273;-62
2022/06/11 10:51:44;;;;;;;26.83;16.63;;;24.70;99.90;;;;;;4831720;29;20630;-62
2022/06/11 10:54:19;;;;;;;23.13;16.60;;;24.30;99.90;;;;;;4840925;29;20614;-61
2022/06/11 10:57:29;;;;;;;22.88;16.90;;;24.00;99.90;;;;;;4840751;29;20197;-61
2022/06/11 11:00:12;;;;;;;22.33;15.60;;;24.30;99.90;;;;;;4840503;29;20208;-62
2022/06/11 11:03:11;;;;;;;24.80;14.98;;;24.60;99.90;;;;;;4840258;29;20229;-61
2022/06/11 11:05:44;;;;;;;20.83;15.48;;;24.80;99.90;;;;;;4840348;29;20557;-61
2022/06/11 11:08:12;;;;;;;23.25;14.88;;;25.30;99.90;;;;;;4824218;29;20196;-63
2022/06/11 11:10:53;;;;;;;21.13;13.63;;;25.40;99.90;;;;;;4840172;29;20536;-62
2022/06/11 11:13:42;;;;;;;22.63;13.90;;;25.10;99.90;;;;;;4824032;29;20234;-63
2022/06/11 11:16:19;;;;;;;21.85;13.57;;;24.80;99.90;;;;;;4841462;29;20197;-62
2022/06/11 11:19:02;;;;;;;22.33;15.40;;;24.90;99.90;;;;;;4840347;29;20174;-62
2022/06/11 11:21:47;;;;;;;18.88;15.43;;;24.40;99.90;;;;;;4824339;29;20607;-62
2022/06/11 11:24:21;;;;;;;21.02;15.63;;;24.50;99.90;;;;;;4840823;29;20264;-61
2022/06/11 11:26:56;;;;;;;23.38;16.20;;;24.50;99.90;;;;;;4843247;29;20241;-61
2022/06/11 11:29:38;;;;;;;21.02;14.93;;;24.70;99.90;;;;;;4858959;29;20249;-62
2022/06/11 11:32:24;;;;;;;19.75;15.50;;;24.60;99.90;;;;;;4842760;29;20521;-63
2022/06/11 11:34:50;;;;;;;21.80;14.15;;;24.70;99.90;;;;;;4858817;29;20181;-65
2022/06/11 11:37:24;;;;;;;20.98;14.70;;;25.00;99.90;;;;;;4858014;29;20197;-64
2022/06/11 11:39:53;;;;;;;23.40;16.33;;;24.90;99.90;;;;;;4858564;29;20197;-62
2022/06/11 11:42:26;;;;;;;24.42;16.60;;;24.90;99.90;;;;;;4858567;29;20288;-65
2022/06/11 11:44:57;;;;;;;21.42;16.13;;;24.60;99.90;;;;;;4857935;29;20193;-63
2022/06/11 11:47:33;;;;;;;24.42;16.55;;;24.40;99.90;;;;;;4858828;29;20197;-62
2022/06/11 11:50:11;;;;;;;27.80;16.83;;;24.40;99.90;;;;;;4858783;29;20271;-63
2022/06/11 11:52:44;;;;;;;22.27;16.25;;;24.40;99.90;;;;;;4858382;29;20196;-64
2022/06/11 11:55:30;;;;;;;22.73;15.38;;;24.60;99.90;;;;;;4858133;29;20249;-66
2022/06/11 11:58:12;;;;;;;23.52;16.00;;;24.60;99.90;;;;;;4848594;29;20201;-62
2022/06/11 12:00:54;;;;;;;27.45;17.55;;;24.60;99.90;;;;;;4858359;29;20193;-62
2022/06/11 12:03:30;;;;;;;29.20;19.05;;;24.30;99.90;;;;;;4858575;29;20264;-66
2022/06/11 12:05:58;;;;;;;27.77;18.40;;;23.80;99.90;;;;;;4858696;29;20242;-63
2022/06/11 12:08:27;;;;;;;24.98;17.63;;;23.80;99.90;;;;;;4858029;29;20203;-63
2022/06/11 12:11:01;;;;;;;26.95;18.38;;;23.50;99.90;;;;;;4858394;29;20570;-63
2022/06/11 12:13:45;;;;;;;26.15;17.92;;;23.40;99.90;;;;;;4857862;29;20285;-67
2022/06/11 12:16:31;;;;;;;26.10;19.10;;;23.30;99.90;;;;;;4858084;29;20238;-64
2022/06/11 12:19:05;;;;;;;26.77;18.27;;;23.10;99.90;;;;;;4856535;29;20216;-61
2022/06/11 12:21:40;;;;;;;24.63;18.73;;;22.90;99.90;;;;;;4855058;29;20291;-62
2022/06/11 12:24:13;;;;;;;29.08;19.23;;;22.60;99.90;;;;;;4856305;29;20204;-63
2022/06/11 12:26:49;;;;;;;24.27;18.02;;;22.50;99.90;;;;;;4856782;29;20287;-60
2022/06/11 12:29:24;;;;;;;25.48;18.05;;;22.40;99.90;;;;;;4856808;29;20590;-61
2022/06/11 12:31:53;;;;;;;24.77;17.70;;;22.30;99.90;;;;;;4856530;29;20203;-59
2022/06/11 12:34:24;;;;;;;27.15;19.23;;;22.30;99.90;;;;;;4857282;29;20205;-59
2022/06/11 12:36:58;;;;;;;29.73;19.05;;;22.30;99.90;;;;;;4857665;29;20196;-58
2022/06/11 12:39:48;;;;;;;29.65;20.55;;;22.20;99.90;;;;;;4856299;29;20185;-58
2022/06/11 12:42:26;;;;;;;12.15;7.10;;;22.10;99.90;;;;;;4856981;29;20224;-58
2022/06/11 12:45:29;;;;;;;18.30;5.22;;;21.70;99.90;;;;;;4857684;29;20196;-61
2022/06/11 12:48:39;;;;;;;11.95;4.38;;;21.00;99.90;;;;;;4841104;29;20237;-59
2022/06/11 12:51:11;;;;;;;13.32;4.30;;;20.20;99.90;;;;;;4824960;29;20216;-59
2022/06/11 12:53:43;;;;;;;11.35;4.38;;;19.50;99.90;;;;;;4847568;29;20200;-60
2022/06/11 12:56:19;;;;;;;17.67;4.60;;;19.10;99.90;;;;;;4856427;29;20204;-63
2022/06/11 12:59:16;;;;;;;14.13;4.70;;;18.90;99.90;;;;;;4856483;29;20634;-61
2022/06/11 13:01:44;;;;;;;13.90;5.25;;;18.80;99.90;;;;;;4856276;29;20322;-61
2022/06/11 13:04:25;;;;;;;18.70;7.18;;;18.70;99.90;;;;;;4856808;29;20189;-67
2022/06/11 13:07:06;;;;;;;43.95;16.42;;;18.50;99.90;;;;;;4846295;29;20725;-62
2022/06/11 13:09:50;;;;;;;22.20;6.57;;;18.40;99.90;;;;;;4855689;29;20209;-64